Terminal Aerodrome Forecast
Issued by NWS

Home | Current Version | Previous Version | Text Only | Print | Product List | Glossary On
Versions: 1 2 3 4 5 6 7 8 9 10 11 12
000
FTUS45 KLKN 210500
TAFEKO
TAF
KEKO 210520Z 2106/2206 VRB03KT P6SM SCT250
     FM212000 24015G25KT P6SM SCT100 BKN150
     FM220200 26006KT P6SM SCT080 BKN100=

USA.gov is the U.S. government's official web portal to all federal, state and local government web resources and services.